sensor_id;sensor_type;location;lat;lon;timestamp;pressure;altitude;pressure_sealevel;temperature;humidity
81005;BME280;70472;47.592;17.640;2023-08-01T00:00:27;99193.88;;;18.14;91.06
81005;BME280;70472;47.592;17.640;2023-08-01T00:01:01;99183.84;;;18.15;90.68
81005;BME280;70472;47.592;17.640;2023-08-01T00:01:34;99189.63;;;18.19;89.91
81005;BME280;70472;47.592;17.640;2023-08-01T00:02:07;99188.09;;;18.23;90.38
81005;BME280;70472;47.592;17.640;2023-08-01T00:02:40;99184.28;;;18.24;89.94
81005;BME280;70472;47.592;17.640;2023-08-01T00:03:12;99182.75;;;18.28;90.03
81005;BME280;70472;47.592;17.640;2023-08-01T00:03:44;99183.34;;;18.30;89.21
81005;BME280;70472;47.592;17.640;2023-08-01T00:04:17;99184.53;;;18.34;89.69
81005;BME280;70472;47.592;17.640;2023-08-01T00:04:49;99182.88;;;18.33;89.79
81005;BME280;70472;47.592;17.640;2023-08-01T00:05:21;99177.78;;;18.36;89.13
81005;BME280;70472;47.592;17.640;2023-08-01T00:05:53;99175.66;;;18.38;89.60
81005;BME280;70472;47.592;17.640;2023-08-01T00:06:26;99176.22;;;18.40;89.42
81005;BME280;70472;47.592;17.640;2023-08-01T00:06:58;99182.03;;;18.44;88.11
81005;BME280;70472;47.592;17.640;2023-08-01T00:07:30;99177.63;;;18.43;88.11
81005;BME280;70472;47.592;17.640;2023-08-01T00:08:03;99179.31;;;18.44;88.42
81005;BME280;70472;47.592;17.640;2023-08-01T00:08:36;99179.06;;;18.46;89.20
81005;BME280;70472;47.592;17.640;2023-08-01T00:09:08;99183.88;;;18.43;88.58
81005;BME280;70472;47.592;17.640;2023-08-01T00:09:40;99177.75;;;18.48;88.86
81005;BME280;70472;47.592;17.640;2023-08-01T00:10:13;99178.34;;;18.50;87.93
81005;BME280;70472;47.592;17.640;2023-08-01T00:10:45;99173.81;;;18.56;86.74
81005;BME280;70472;47.592;17.640;2023-08-01T00:11:17;99177.28;;;18.51;88.06
81005;BME280;70472;47.592;17.640;2023-08-01T00:11:50;99179.75;;;18.53;88.30
81005;BME280;70472;47.592;17.640;2023-08-01T00:12:24;99169.69;;;18.53;88.68
81005;BME280;70472;47.592;17.640;2023-08-01T00:12:56;99181.63;;;18.52;87.98
81005;BME280;70472;47.592;17.640;2023-08-01T00:13:29;99179.16;;;18.51;88.27
81005;BME280;70472;47.592;17.640;2023-08-01T00:14:01;99181.13;;;18.55;87.97
81005;BME280;70472;47.592;17.640;2023-08-01T00:14:35;99177.94;;;18.58;88.78
81005;BME280;70472;47.592;17.640;2023-08-01T00:15:08;99173.59;;;18.57;87.84
81005;BME280;70472;47.592;17.640;2023-08-01T00:15:41;99182.19;;;18.54;88.85
81005;BME280;70472;47.592;17.640;2023-08-01T00:16:14;99177.38;;;18.56;89.64
81005;BME280;70472;47.592;17.640;2023-08-01T00:16:47;99184.91;;;18.54;88.98
81005;BME280;70472;47.592;17.640;2023-08-01T00:17:19;99178.66;;;18.54;88.77
81005;BME280;70472;47.592;17.640;2023-08-01T00:17:51;99174.16;;;18.59;88.19
81005;BME280;70472;47.592;17.640;2023-08-01T00:18:24;99171.78;;;18.63;87.96
81005;BME280;70472;47.592;17.640;2023-08-01T00:18:56;99174.25;;;18.64;87.23
81005;BME280;70472;47.592;17.640;2023-08-01T00:19:29;99176.03;;;18.71;86.37
81005;BME280;70472;47.592;17.640;2023-08-01T00:20:02;99177.44;;;18.73;87.70
81005;BME280;70472;47.592;17.640;2023-08-01T00:20:35;99180.09;;;18.68;88.70
81005;BME280;70472;47.592;17.640;2023-08-01T00:21:07;99176.63;;;18.73;86.88
81005;BME280;70472;47.592;17.640;2023-08-01T00:21:39;99182.81;;;18.85;84.36
81005;BME280;70472;47.592;17.640;2023-08-01T00:22:12;99171.22;;;18.89;84.89
81005;BME280;70472;47.592;17.640;2023-08-01T00:22:44;99176.19;;;18.92;84.16
81005;BME280;70472;47.592;17.640;2023-08-01T00:23:16;99168.59;;;18.94;83.92
81005;BME280;70472;47.592;17.640;2023-08-01T00:23:49;99170.75;;;18.92;84.93
81005;BME280;70472;47.592;17.640;2023-08-01T00:24:21;99168.50;;;18.89;86.67
81005;BME280;70472;47.592;17.640;2023-08-01T00:24:53;99177.84;;;18.93;85.80
81005;BME280;70472;47.592;17.640;2023-08-01T00:25:26;99175.13;;;18.93;85.91
81005;BME280;70472;47.592;17.640;2023-08-01T00:25:58;99177.00;;;18.93;87.26
81005;BME280;70472;47.592;17.640;2023-08-01T00:26:30;99174.28;;;18.93;85.96
81005;BME280;70472;47.592;17.640;2023-08-01T00:27:03;99169.44;;;18.95;86.08
81005;BME280;70472;47.592;17.640;2023-08-01T00:27:36;99167.28;;;18.97;85.53
81005;BME280;70472;47.592;17.640;2023-08-01T00:28:08;99173.31;;;18.99;84.10
81005;BME280;70472;47.592;17.640;2023-08-01T00:28:40;99170.09;;;19.02;84.28
81005;BME280;70472;47.592;17.640;2023-08-01T00:29:13;99173.88;;;19.01;84.72
81005;BME280;70472;47.592;17.640;2023-08-01T00:29:45;99175.22;;;18.99;86.01
81005;BME280;70472;47.592;17.640;2023-08-01T00:30:18;99170.09;;;19.02;86.33
81005;BME280;70472;47.592;17.640;2023-08-01T00:30:50;99168.78;;;19.05;85.18
81005;BME280;70472;47.592;17.640;2023-08-01T00:31:23;99174.22;;;19.05;84.91
81005;BME280;70472;47.592;17.640;2023-08-01T00:31:55;99167.72;;;19.06;85.80
81005;BME280;70472;47.592;17.640;2023-08-01T00:32:27;99168.53;;;19.06;85.17
81005;BME280;70472;47.592;17.640;2023-08-01T00:32:59;99169.09;;;19.08;85.52
81005;BME280;70472;47.592;17.640;2023-08-01T00:33:32;99163.19;;;19.11;83.42
81005;BME280;70472;47.592;17.640;2023-08-01T00:34:05;99165.66;;;19.13;84.38
81005;BME280;70472;47.592;17.640;2023-08-01T00:34:37;99167.31;;;19.14;86.27
81005;BME280;70472;47.592;17.640;2023-08-01T00:35:09;99152.63;;;19.15;84.42
81005;BME280;70472;47.592;17.640;2023-08-01T00:35:42;99157.25;;;19.14;83.86
81005;BME280;70472;47.592;17.640;2023-08-01T00:36:14;99157.84;;;19.16;83.21
81005;BME280;70472;47.592;17.640;2023-08-01T00:36:46;99152.41;;;19.16;84.38
81005;BME280;70472;47.592;17.640;2023-08-01T00:37:19;99158.94;;;19.15;85.27
81005;BME280;70472;47.592;17.640;2023-08-01T00:37:51;99158.25;;;19.08;86.16
81005;BME280;70472;47.592;17.640;2023-08-01T00:38:23;99157.19;;;19.09;86.00
81005;BME280;70472;47.592;17.640;2023-08-01T00:38:57;99151.50;;;19.11;85.28
81005;BME280;70472;47.592;17.640;2023-08-01T00:39:29;99152.88;;;19.13;85.24
81005;BME280;70472;47.592;17.640;2023-08-01T00:40:02;99154.31;;;19.16;85.03
81005;BME280;70472;47.592;17.640;2023-08-01T00:40:35;99150.16;;;19.13;84.90
81005;BME280;70472;47.592;17.640;2023-08-01T00:41:07;99153.97;;;19.12;85.84
81005;BME280;70472;47.592;17.640;2023-08-01T00:41:39;99159.81;;;19.04;86.97
81005;BME280;70472;47.592;17.640;2023-08-01T00:42:11;99153.69;;;18.97;86.70
81005;BME280;70472;47.592;17.640;2023-08-01T00:42:44;99153.50;;;19.15;83.15
81005;BME280;70472;47.592;17.640;2023-08-01T00:43:16;99150.84;;;19.20;83.01
81005;BME280;70472;47.592;17.640;2023-08-01T00:43:49;99150.34;;;19.24;82.39
81005;BME280;70472;47.592;17.640;2023-08-01T00:44:22;99155.78;;;19.24;83.50
81005;BME280;70472;47.592;17.640;2023-08-01T00:44:54;99146.00;;;19.23;83.26
81005;BME280;70472;47.592;17.640;2023-08-01T00:45:27;99154.72;;;19.25;84.36
81005;BME280;70472;47.592;17.640;2023-08-01T00:46:02;99151.75;;;19.26;84.32
81005;BME280;70472;47.592;17.640;2023-08-01T00:46:35;99142.75;;;19.26;84.02
81005;BME280;70472;47.592;17.640;2023-08-01T00:47:09;99146.22;;;19.21;84.80
81005;BME280;70472;47.592;17.640;2023-08-01T00:47:41;99145.66;;;19.19;86.21
81005;BME280;70472;47.592;17.640;2023-08-01T00:48:14;99149.53;;;19.23;84.79
81005;BME280;70472;47.592;17.640;2023-08-01T00:48:46;99143.59;;;19.26;83.34
81005;BME280;70472;47.592;17.640;2023-08-01T00:49:19;99147.13;;;19.27;84.17
81005;BME280;70472;47.592;17.640;2023-08-01T00:49:53;99151.25;;;19.29;82.56
81005;BME280;70472;47.592;17.640;2023-08-01T00:50:25;99147.72;;;19.29;84.55
81005;BME280;70472;47.592;17.640;2023-08-01T00:51:01;99147.72;;;19.29;84.63
81005;BME280;70472;47.592;17.640;2023-08-01T00:51:34;99150.34;;;19.24;84.80
81005;BME280;70472;47.592;17.640;2023-08-01T00:52:09;99143.34;;;19.28;85.81
81005;BME280;70472;47.592;17.640;2023-08-01T00:52:41;99139.38;;;19.18;86.36
81005;BME280;70472;47.592;17.640;2023-08-01T00:53:14;99140.13;;;19.14;85.63
81005;BME280;70472;47.592;17.640;2023-08-01T00:53:46;99138.81;;;19.16;85.43
81005;BME280;70472;47.592;17.640;2023-08-01T00:54:18;99134.19;;;19.17;85.77
81005;BME280;70472;47.592;17.640;2023-08-01T00:54:51;99141.63;;;19.21;85.15
81005;BME280;70472;47.592;17.640;2023-08-01T00:55:24;99133.47;;;19.21;85.24
81005;BME280;70472;47.592;17.640;2023-08-01T00:55:59;99136.25;;;19.27;84.30
81005;BME280;70472;47.592;17.640;2023-08-01T00:56:32;99134.69;;;19.31;84.39
81005;BME280;70472;47.592;17.640;2023-08-01T00:57:05;99136.09;;;19.33;82.61
81005;BME280;70472;47.592;17.640;2023-08-01T00:57:37;99136.94;;;19.34;82.68
81005;BME280;70472;47.592;17.640;2023-08-01T00:58:10;99138.81;;;19.33;84.03
81005;BME280;70472;47.592;17.640;2023-08-01T00:58:42;99132.53;;;19.33;84.37
81005;BME280;70472;47.592;17.640;2023-08-01T00:59:16;99129.59;;;19.34;84.30
81005;BME280;70472;47.592;17.640;2023-08-01T00:59:48;99128.50;;;19.35;83.54
81005;BME280;70472;47.592;17.640;2023-08-01T01:00:20;99127.09;;;19.33;83.10
81005;BME280;70472;47.592;17.640;2023-08-01T01:00:53;99134.22;;;19.34;83.69
81005;BME280;70472;47.592;17.640;2023-08-01T01:01:29;99115.81;;;19.24;83.01
81005;BME280;70472;47.592;17.640;2023-08-01T01:02:26;99109.81;;;19.22;84.01
81005;BME280;70472;47.592;17.640;2023-08-01T01:03:06;99142.38;;;19.34;84.24
81005;BME280;70472;47.592;17.640;2023-08-01T01:03:39;99127.59;;;19.30;84.46
81005;BME280;70472;47.592;17.640;2023-08-01T01:04:11;99128.94;;;19.27;84.25
81005;BME280;70472;47.592;17.640;2023-08-01T01:04:44;99127.03;;;19.28;84.06
81005;BME280;70472;47.592;17.640;2023-08-01T01:05:16;99128.44;;;19.30;85.51
81005;BME280;70472;47.592;17.640;2023-08-01T01:06:25;99128.16;;;19.32;85.58
81005;BME280;70472;47.592;17.640;2023-08-01T01:07:03;99119.38;;;19.25;86.55
81005;BME280;70472;47.592;17.640;2023-08-01T01:07:39;99120.44;;;19.24;86.63
81005;BME280;70472;47.592;17.640;2023-08-01T01:08:12;99121.19;;;19.19;86.75
81005;BME280;70472;47.592;17.640;2023-08-01T01:08:44;99121.19;;;19.19;86.67
81005;BME280;70472;47.592;17.640;2023-08-01T01:09:20;99113.59;;;19.21;86.46
81005;BME280;70472;47.592;17.640;2023-08-01T01:09:53;99114.75;;;19.25;85.95
81005;BME280;70472;47.592;17.640;2023-08-01T01:10:25;99116.00;;;19.17;87.32
81005;BME280;70472;47.592;17.640;2023-08-01T01:10:58;99116.00;;;19.17;87.60
81005;BME280;70472;47.592;17.640;2023-08-01T01:11:30;99117.38;;;19.20;86.85
81005;BME280;70472;47.592;17.640;2023-08-01T01:12:03;99107.75;;;19.12;87.55
81005;BME280;70472;47.592;17.640;2023-08-01T01:12:35;99114.34;;;19.16;86.05
81005;BME280;70472;47.592;17.640;2023-08-01T01:13:08;99113.28;;;19.17;86.64
81005;BME280;70472;47.592;17.640;2023-08-01T01:13:40;99113.03;;;19.19;86.42
81005;BME280;70472;47.592;17.640;2023-08-01T01:14:13;99115.47;;;19.20;85.97
81005;BME280;70472;47.592;17.640;2023-08-01T01:14:46;99106.03;;;19.23;85.00
81005;BME280;70472;47.592;17.640;2023-08-01T01:15:18;99106.84;;;19.24;85.60
81005;BME280;70472;47.592;17.640;2023-08-01T01:15:50;99113.09;;;19.24;85.42
81005;BME280;70472;47.592;17.640;2023-08-01T01:16:23;99108.31;;;19.14;86.35
81005;BME280;70472;47.592;17.640;2023-08-01T01:16:56;99109.38;;;19.13;86.71
81005;BME280;70472;47.592;17.640;2023-08-01T01:17:28;99109.13;;;19.15;86.48
81005;BME280;70472;47.592;17.640;2023-08-01T01:18:00;99102.88;;;19.14;86.22
81005;BME280;70472;47.592;17.640;2023-08-01T01:18:33;99107.84;;;19.17;85.44
81005;BME280;70472;47.592;17.640;2023-08-01T01:19:08;99104.94;;;19.07;87.06
81005;BME280;70472;47.592;17.640;2023-08-01T01:19:40;99104.38;;;19.05;86.97
81005;BME280;70472;47.592;17.640;2023-08-01T01:20:13;99109.31;;;19.08;86.72
81005;BME280;70472;47.592;17.640;2023-08-01T01:20:45;99097.38;;;19.09;87.16
81005;BME280;70472;47.592;17.640;2023-08-01T01:21:18;99093.81;;;19.09;87.33
81005;BME280;70472;47.592;17.640;2023-08-01T01:21:50;99099.59;;;19.12;85.87
81005;BME280;70472;47.592;17.640;2023-08-01T01:22:23;99102.88;;;19.14;86.78
81005;BME280;70472;47.592;17.640;2023-08-01T01:22:56;99096.53;;;19.09;85.91
81005;BME280;70472;47.592;17.640;2023-08-01T01:23:30;99097.94;;;19.11;86.78
81005;BME280;70472;47.592;17.640;2023-08-01T01:24:08;99100.41;;;19.13;86.37
81005;BME280;70472;47.592;17.640;2023-08-01T01:24:42;99103.38;;;19.11;85.02
81005;BME280;70472;47.592;17.640;2023-08-01T01:25:15;99100.09;;;19.09;86.47
81005;BME280;70472;47.592;17.640;2023-08-01T01:25:52;99096.53;;;19.09;86.28
81005;BME280;70472;47.592;17.640;2023-08-01T01:26:26;99094.41;;;19.11;84.91
81005;BME280;70472;47.592;17.640;2023-08-01T01:27:01;99102.88;;;19.14;85.48
81005;BME280;70472;47.592;17.640;2023-08-01T01:27:37;99099.94;;;19.16;85.55
81005;BME280;70472;47.592;17.640;2023-08-01T01:28:10;99094.81;;;19.19;85.63
81005;BME280;70472;47.592;17.640;2023-08-01T01:28:43;99096.22;;;19.22;83.06
81005;BME280;70472;47.592;17.640;2023-08-01T01:29:16;99096.22;;;19.22;82.52
81005;BME280;70472;47.592;17.640;2023-08-01T01:29:49;99089.44;;;19.25;83.99
81005;BME280;70472;47.592;17.640;2023-08-01T01:30:22;99090.03;;;19.27;84.01
81005;BME280;70472;47.592;17.640;2023-08-01T01:30:55;99090.28;;;19.25;82.83
81005;BME280;70472;47.592;17.640;2023-08-01T01:31:27;99092.50;;;19.28;83.30
81005;BME280;70472;47.592;17.640;2023-08-01T01:32:01;99089.53;;;19.30;83.43
81005;BME280;70472;47.592;17.640;2023-08-01T01:32:34;99090.03;;;19.27;83.34
81005;BME280;70472;47.592;17.640;2023-08-01T01:33:07;99084.28;;;19.23;84.53
81005;BME280;70472;47.592;17.640;2023-08-01T01:33:42;99090.53;;;19.24;84.25
81005;BME280;70472;47.592;17.640;2023-08-01T01:34:15;99086.25;;;19.28;83.84
81005;BME280;70472;47.592;17.640;2023-08-01T01:34:47;99091.19;;;19.31;83.71
81005;BME280;70472;47.592;17.640;2023-08-01T01:35:20;99095.78;;;19.30;84.17
81005;BME280;70472;47.592;17.640;2023-08-01T01:35:53;99089.53;;;19.30;82.45
81005;BME280;70472;47.592;17.640;2023-08-01T01:36:26;99082.44;;;19.29;83.70
81005;BME280;70472;47.592;17.640;2023-08-01T01:36:58;99084.09;;;19.30;83.21
81005;BME280;70472;47.592;17.640;2023-08-01T01:37:31;99083.59;;;19.33;82.05
81005;BME280;70472;47.592;17.640;2023-08-01T01:38:04;99090.69;;;19.34;82.26
81005;BME280;70472;47.592;17.640;2023-08-01T01:38:36;99087.97;;;19.34;82.59
81005;BME280;70472;47.592;17.640;2023-08-01T01:39:09;99085.81;;;19.36;82.18
81005;BME280;70472;47.592;17.640;2023-08-01T01:39:41;99083.66;;;19.38;82.11
81005;BME280;70472;47.592;17.640;2023-08-01T01:40:13;99093.47;;;19.39;83.49
81005;BME280;70472;47.592;17.640;2023-08-01T01:40:46;99084.75;;;19.37;81.70
81005;BME280;70472;47.592;17.640;2023-08-01T01:41:18;99088.88;;;19.39;81.74
81005;BME280;70472;47.592;17.640;2023-08-01T01:41:50;99082.94;;;19.42;81.64
81005;BME280;70472;47.592;17.640;2023-08-01T01:42:23;99083.81;;;19.48;80.69
81005;BME280;70472;47.592;17.640;2023-08-01T01:42:55;99083.34;;;19.51;79.46
81005;BME280;70472;47.592;17.640;2023-08-01T01:43:27;99085.53;;;19.54;79.13
81005;BME280;70472;47.592;17.640;2023-08-01T01:44:00;99076.81;;;19.52;80.40
81005;BME280;70472;47.592;17.640;2023-08-01T01:44:32;99080.03;;;19.49;82.26
81005;BME280;70472;47.592;17.640;2023-08-01T01:45:05;99079.47;;;19.47;82.43
81005;BME280;70472;47.592;17.640;2023-08-01T01:45:38;99079.88;;;19.39;82.80
81005;BME280;70472;47.592;17.640;2023-08-01T01:46:13;99072.56;;;19.39;82.62
81005;BME280;70472;47.592;17.640;2023-08-01T01:46:46;99075.59;;;19.43;81.50
81005;BME280;70472;47.592;17.640;2023-08-01T01:47:18;99069.00;;;19.39;82.89
81005;BME280;70472;47.592;17.640;2023-08-01T01:47:51;99074.13;;;19.35;84.21
81005;BME280;70472;47.592;17.640;2023-08-01T01:48:23;99073.88;;;19.37;83.43
81005;BME280;70472;47.592;17.640;2023-08-01T01:48:55;99073.88;;;19.37;83.39
81005;BME280;70472;47.592;17.640;2023-08-01T01:49:28;99062.50;;;19.40;82.87
81005;BME280;70472;47.592;17.640;2023-08-01T01:50:00;99067.94;;;19.40;83.29
81005;BME280;70472;47.592;17.640;2023-08-01T01:50:32;99071.72;;;19.39;84.08
81005;BME280;70472;47.592;17.640;2023-08-01T01:51:05;99069.84;;;19.39;82.61
81005;BME280;70472;47.592;17.640;2023-08-01T01:51:37;99061.16;;;19.42;81.93
81005;BME280;70472;47.592;17.640;2023-08-01T01:52:09;99066.13;;;19.45;81.09
81005;BME280;70472;47.592;17.640;2023-08-01T01:52:42;99072.38;;;19.46;82.18
81005;BME280;70472;47.592;17.640;2023-08-01T01:53:14;99062.81;;;19.43;81.75
81005;BME280;70472;47.592;17.640;2023-08-01T01:53:46;99060.34;;;19.42;82.02
81005;BME280;70472;47.592;17.640;2023-08-01T01:54:19;99063.00;;;19.37;83.06
81005;BME280;70472;47.592;17.640;2023-08-01T01:54:53;99063.25;;;19.35;84.04
81005;BME280;70472;47.592;17.640;2023-08-01T01:55:25;99060.81;;;19.39;83.09
81005;BME280;70472;47.592;17.640;2023-08-01T01:55:58;99060.59;;;19.40;82.60
81005;BME280;70472;47.592;17.640;2023-08-01T01:56:30;99069.31;;;19.42;81.93
81005;BME280;70472;47.592;17.640;2023-08-01T01:57:03;99059.84;;;19.45;82.06
81005;BME280;70472;47.592;17.640;2023-08-01T01:57:35;99065.03;;;19.46;81.68
81005;BME280;70472;47.592;17.640;2023-08-01T01:58:08;99061.81;;;19.49;81.91
81005;BME280;70472;47.592;17.640;2023-08-01T01:58:40;99063.69;;;19.49;80.83
81005;BME280;70472;47.592;17.640;2023-08-01T01:59:13;99070.78;;;19.50;81.10
81005;BME280;70472;47.592;17.640;2023-08-01T01:59:45;99058.84;;;19.51;80.29
81005;BME280;70472;47.592;17.640;2023-08-01T02:00:17;99066.75;;;19.53;79.79
81005;BME280;70472;47.592;17.640;2023-08-01T02:00:50;99059.16;;;19.55;79.82
81005;BME280;70472;47.592;17.640;2023-08-01T02:01:22;99062.56;;;19.45;81.73
81005;BME280;70472;47.592;17.640;2023-08-01T02:01:54;99060.69;;;19.45;81.49
81005;BME280;70472;47.592;17.640;2023-08-01T02:02:27;99066.59;;;19.42;82.91
81005;BME280;70472;47.592;17.640;2023-08-01T02:02:59;99058.63;;;19.36;82.83
81005;BME280;70472;47.592;17.640;2023-08-01T02:03:32;99064.97;;;19.41;81.94
81005;BME280;70472;47.592;17.640;2023-08-01T02:04:05;99057.69;;;19.47;80.59
81005;BME280;70472;47.592;17.640;2023-08-01T02:04:38;99062.31;;;19.46;79.97
81005;BME280;70472;47.592;17.640;2023-08-01T02:05:10;99063.16;;;19.47;81.33
81005;BME280;70472;47.592;17.640;2023-08-01T02:05:42;99060.97;;;19.49;81.32
81005;BME280;70472;47.592;17.640;2023-08-01T02:06:15;99055.38;;;19.39;83.10
81005;BME280;70472;47.592;17.640;2023-08-01T02:06:47;99059.78;;;19.40;81.81
81005;BME280;70472;47.592;17.640;2023-08-01T02:07:19;99057.88;;;19.40;81.72
81005;BME280;70472;47.592;17.640;2023-08-01T02:07:52;99059.19;;;19.38;81.21
81005;BME280;70472;47.592;17.640;2023-08-01T02:08:24;99060.59;;;19.40;82.15
81005;BME280;70472;47.592;17.640;2023-08-01T02:08:56;99061.72;;;19.44;80.87
81005;BME280;70472;47.592;17.640;2023-08-01T02:09:33;99059.00;;;19.44;81.58
81005;BME280;70472;47.592;17.640;2023-08-01T02:10:05;99053.34;;;19.46;80.53
81005;BME280;70472;47.592;17.640;2023-08-01T02:10:39;99056.38;;;19.49;80.08
81005;BME280;70472;47.592;17.640;2023-08-01T02:11:11;99055.88;;;19.53;79.14
81005;BME280;70472;47.592;17.640;2023-08-01T02:11:43;99056.69;;;19.53;80.45
81005;BME280;70472;47.592;17.640;2023-08-01T02:12:16;99051.25;;;19.53;79.13
81005;BME280;70472;47.592;17.640;2023-08-01T02:12:48;99060.50;;;19.52;79.50
81005;BME280;70472;47.592;17.640;2023-08-01T02:13:20;99056.69;;;19.53;80.33
81005;BME280;70472;47.592;17.640;2023-08-01T02:13:53;99049.63;;;19.52;79.59
81005;BME280;70472;47.592;17.640;2023-08-01T02:14:26;99046.63;;;19.54;80.68
81005;BME280;70472;47.592;17.640;2023-08-01T02:14:58;99050.09;;;19.49;81.19
81005;BME280;70472;47.592;17.640;2023-08-01T02:15:31;99051.75;;;19.50;80.01
81005;BME280;70472;47.592;17.640;2023-08-01T02:16:04;99047.13;;;19.51;80.69
81005;BME280;70472;47.592;17.640;2023-08-01T02:16:36;99045.81;;;19.53;79.63
81005;BME280;70472;47.592;17.640;2023-08-01T02:17:08;99042.03;;;19.54;80.15
81005;BME280;70472;47.592;17.640;2023-08-01T02:17:41;99046.63;;;19.54;79.58
81005;BME280;70472;47.592;17.640;2023-08-01T02:18:13;99047.13;;;19.51;81.25
81005;BME280;70472;47.592;17.640;2023-08-01T02:18:45;99043.53;;;19.45;81.01
81005;BME280;70472;47.592;17.640;2023-08-01T02:19:18;99041.38;;;19.47;80.55
81005;BME280;70472;47.592;17.640;2023-08-01T02:19:50;99039.22;;;19.49;79.88
81005;BME280;70472;47.592;17.640;2023-08-01T02:20:23;99045.25;;;19.51;81.19
81005;BME280;70472;47.592;17.640;2023-08-01T02:20:55;99043.03;;;19.48;80.86
81005;BME280;70472;47.592;17.640;2023-08-01T02:21:27;99038.97;;;19.51;80.61
81005;BME280;70472;47.592;17.640;2023-08-01T02:22:00;99040.88;;;19.50;79.34
81005;BME280;70472;47.592;17.640;2023-08-01T02:22:33;99037.09;;;19.51;79.29
81005;BME280;70472;47.592;17.640;2023-08-01T02:23:05;99037.50;;;19.43;81.70
81005;BME280;70472;47.592;17.640;2023-08-01T02:23:38;99038.59;;;19.42;81.74
81005;BME280;70472;47.592;17.640;2023-08-01T02:24:10;99038.31;;;19.43;81.04
81005;BME280;70472;47.592;17.640;2023-08-01T02:24:43;99039.91;;;19.39;81.29
81005;BME280;70472;47.592;17.640;2023-08-01T02:25:15;99038.25;;;19.38;82.10
81005;BME280;70472;47.592;17.640;2023-08-01T02:25:48;99039.91;;;19.39;81.88
81005;BME280;70472;47.592;17.640;2023-08-01T02:26:20;99036.59;;;19.37;81.56
81005;BME280;70472;47.592;17.640;2023-08-01T02:26:53;99041.22;;;19.37;81.13
81005;BME280;70472;47.592;17.640;2023-08-01T02:27:26;99036.97;;;19.24;82.11
81005;BME280;70472;47.592;17.640;2023-08-01T02:27:58;99038.63;;;19.25;82.26
81005;BME280;70472;47.592;17.640;2023-08-01T02:28:30;99036.72;;;19.26;81.55
81005;BME280;70472;47.592;17.640;2023-08-01T02:29:03;99036.78;;;19.31;80.71
81005;BME280;70472;47.592;17.640;2023-08-01T02:29:35;99043.88;;;19.32;80.74
81005;BME280;70472;47.592;17.640;2023-08-01T02:30:11;99034.63;;;19.33;80.11
81005;BME280;70472;47.592;17.640;2023-08-01T02:30:43;99036.59;;;19.37;79.56
81005;BME280;70472;47.592;17.640;2023-08-01T02:31:17;99036.94;;;19.41;79.50
81005;BME280;70472;47.592;17.640;2023-08-01T02:31:49;99036.69;;;19.42;78.94
81005;BME280;70472;47.592;17.640;2023-08-01T02:32:21;99029.94;;;19.45;78.36
81005;BME280;70472;47.592;17.640;2023-08-01T02:32:55;99038.66;;;19.47;78.67
81005;BME280;70472;47.592;17.640;2023-08-01T02:33:30;99038.41;;;19.48;78.83
81005;BME280;70472;47.592;17.640;2023-08-01T02:34:02;99041.38;;;19.47;79.80
81005;BME280;70472;47.592;17.640;2023-08-01T02:34:35;99036.50;;;19.49;78.50
81005;BME280;70472;47.592;17.640;2023-08-01T02:35:08;99040.31;;;19.48;78.59
81005;BME280;70472;47.592;17.640;2023-08-01T02:35:41;99033.78;;;19.49;79.27
81005;BME280;70472;47.592;17.640;2023-08-01T02:36:13;99037.91;;;19.52;78.32
81005;BME280;70472;47.592;17.640;2023-08-01T02:36:45;99042.84;;;19.55;78.13
81005;BME280;70472;47.592;17.640;2023-08-01T02:37:18;99042.03;;;19.54;78.22
81005;BME280;70472;47.592;17.640;2023-08-01T02:37:50;99041.69;;;19.51;78.64
81005;BME280;70472;47.592;17.640;2023-08-01T02:38:22;99036.50;;;19.49;78.19
81005;BME280;70472;47.592;17.640;2023-08-01T02:38:55;99043.34;;;19.52;78.15
81005;BME280;70472;47.592;17.640;2023-08-01T02:39:27;99037.09;;;19.51;78.54
81005;BME280;70472;47.592;17.640;2023-08-01T02:40:03;99037.31;;;19.49;78.93
81005;BME280;70472;47.592;17.640;2023-08-01T02:40:35;99035.41;;;19.50;78.38
81005;BME280;70472;47.592;17.640;2023-08-01T02:41:08;99040.38;;;19.53;77.25
81005;BME280;70472;47.592;17.640;2023-08-01T02:41:40;99033.47;;;19.45;79.18
81005;BME280;70472;47.592;17.640;2023-08-01T02:42:12;99037.50;;;19.43;79.46
81005;BME280;70472;47.592;17.640;2023-08-01T02:42:45;99037.44;;;19.38;80.00
81005;BME280;70472;47.592;17.640;2023-08-01T02:43:17;99035.31;;;19.40;79.84
81005;BME280;70472;47.592;17.640;2023-08-01T02:43:49;99032.06;;;19.43;81.61
81005;BME280;70472;47.592;17.640;2023-08-01T02:44:22;99035.88;;;19.42;80.81
81005;BME280;70472;47.592;17.640;2023-08-01T02:44:54;99035.88;;;19.42;80.75
81005;BME280;70472;47.592;17.640;2023-08-01T02:45:27;99028.72;;;19.36;81.02
81005;BME280;70472;47.592;17.640;2023-08-01T02:45:59;99032.81;;;19.38;80.58
81005;BME280;70472;47.592;17.640;2023-08-01T02:46:31;99024.44;;;19.40;80.51
81005;BME280;70472;47.592;17.640;2023-08-01T02:47:04;99032.06;;;19.43;79.88
81005;BME280;70472;47.592;17.640;2023-08-01T02:47:36;99030.16;;;19.43;79.07
81005;BME280;70472;47.592;17.640;2023-08-01T02:48:08;99026.00;;;19.36;81.30
81005;BME280;70472;47.592;17.640;2023-08-01T02:48:41;99023.28;;;19.36;79.95
81005;BME280;70472;47.592;17.640;2023-08-01T02:49:13;99026.00;;;19.36;81.42
81005;BME280;70472;47.592;17.640;2023-08-01T02:49:45;99018.41;;;19.21;81.42
81005;BME280;70472;47.592;17.640;2023-08-01T02:50:18;99025.28;;;19.24;81.77
81005;BME280;70472;47.592;17.640;2023-08-01T02:50:50;99022.03;;;19.27;81.42
81005;BME280;70472;47.592;17.640;2023-08-01T02:51:22;99018.75;;;19.25;81.71
81005;BME280;70472;47.592;17.640;2023-08-01T02:51:55;99024.75;;;19.27;82.00
81005;BME280;70472;47.592;17.640;2023-08-01T02:52:27;99019.19;;;19.16;81.83